sensor_id;sensor_type;location;lat;lon;timestamp;P1;durP1;ratioP1;P2;durP2;ratioP2
44536;SDS011;30245;51.966;6.292;2023-03-26T00:00:42;6.60;;;0.40;;
44536;SDS011;30245;51.966;6.292;2023-03-26T00:03:09;5.47;;;0.40;;
44536;SDS011;30245;51.966;6.292;2023-03-26T00:05:39;4.53;;;0.60;;
44536;SDS011;30245;51.966;6.292;2023-03-26T00:08:05;6.83;;;1.17;;
44536;SDS011;30245;51.966;6.292;2023-03-26T00:10:32;4.13;;;0.60;;
44536;SDS011;30245;51.966;6.292;2023-03-26T00:12:59;11.03;;;1.73;;
44536;SDS011;30245;51.966;6.292;2023-03-26T00:15:24;7.13;;;0.90;;
44536;SDS011;30245;51.966;6.292;2023-03-26T00:17:50;8.47;;;0.67;;
44536;SDS011;30245;51.966;6.292;2023-03-26T00:20:18;7.70;;;1.08;;
44536;SDS011;30245;51.966;6.292;2023-03-26T00:22:43;14.63;;;0.80;;
44536;SDS011;30245;51.966;6.292;2023-03-26T00:25:09;7.33;;;0.90;;
44536;SDS011;30245;51.966;6.292;2023-03-26T00:27:35;8.47;;;1.10;;
44536;SDS011;30245;51.966;6.292;2023-03-26T00:30:01;11.27;;;1.43;;
44536;SDS011;30245;51.966;6.292;2023-03-26T00:32:27;8.27;;;1.37;;
44536;SDS011;30245;51.966;6.292;2023-03-26T00:34:54;6.87;;;1.57;;
44536;SDS011;30245;51.966;6.292;2023-03-26T00:37:21;14.63;;;1.07;;
44536;SDS011;30245;51.966;6.292;2023-03-26T00:39:53;11.57;;;1.60;;
44536;SDS011;30245;51.966;6.292;2023-03-26T00:42:23;6.70;;;1.33;;
44536;SDS011;30245;51.966;6.292;2023-03-26T00:44:50;12.20;;;1.50;;
44536;SDS011;30245;51.966;6.292;2023-03-26T00:47:19;18.03;;;2.67;;
44536;SDS011;30245;51.966;6.292;2023-03-26T00:49:45;13.60;;;2.10;;
44536;SDS011;30245;51.966;6.292;2023-03-26T00:52:12;14.57;;;2.13;;
44536;SDS011;30245;51.966;6.292;2023-03-26T00:54:42;12.53;;;1.57;;
44536;SDS011;30245;51.966;6.292;2023-03-26T00:57:12;9.47;;;1.97;;
44536;SDS011;30245;51.966;6.292;2023-03-26T00:59:38;8.73;;;2.10;;
44536;SDS011;30245;51.966;6.292;2023-03-26T01:02:05;12.43;;;1.43;;
44536;SDS011;30245;51.966;6.292;2023-03-26T01:04:34;16.33;;;1.30;;
44536;SDS011;30245;51.966;6.292;2023-03-26T01:07:02;10.83;;;2.17;;
44536;SDS011;30245;51.966;6.292;2023-03-26T01:09:36;17.33;;;3.83;;
44536;SDS011;30245;51.966;6.292;2023-03-26T01:12:07;15.63;;;2.57;;
44536;SDS011;30245;51.966;6.292;2023-03-26T01:14:35;17.25;;;3.53;;
44536;SDS011;30245;51.966;6.292;2023-03-26T01:17:03;13.77;;;1.77;;
44536;SDS011;30245;51.966;6.292;2023-03-26T01:22:09;15.27;;;2.05;;
44536;SDS011;30245;51.966;6.292;2023-03-26T01:24:38;16.10;;;1.57;;
44536;SDS011;30245;51.966;6.292;2023-03-26T01:29:43;11.13;;;2.07;;
44536;SDS011;30245;51.966;6.292;2023-03-26T01:32:23;13.67;;;1.27;;
44536;SDS011;30245;51.966;6.292;2023-03-26T01:46:04;12.57;;;1.73;;
44536;SDS011;30245;51.966;6.292;2023-03-26T01:48:35;13.93;;;1.93;;
44536;SDS011;30245;51.966;6.292;2023-03-26T01:51:04;10.40;;;2.50;;
44536;SDS011;30245;51.966;6.292;2023-03-26T01:53:30;9.37;;;1.97;;
44536;SDS011;30245;51.966;6.292;2023-03-26T02:03:30;16.17;;;3.27;;
44536;SDS011;30245;51.966;6.292;2023-03-26T02:08:49;11.60;;;2.67;;
44536;SDS011;30245;51.966;6.292;2023-03-26T02:11:16;14.03;;;2.63;;
44536;SDS011;30245;51.966;6.292;2023-03-26T02:13:43;12.87;;;2.77;;
44536;SDS011;30245;51.966;6.292;2023-03-26T02:16:11;11.27;;;1.92;;
44536;SDS011;30245;51.966;6.292;2023-03-26T02:18:40;11.77;;;2.57;;
44536;SDS011;30245;51.966;6.292;2023-03-26T02:21:11;15.07;;;2.63;;
44536;SDS011;30245;51.966;6.292;2023-03-26T02:23:42;20.63;;;2.13;;
44536;SDS011;30245;51.966;6.292;2023-03-26T02:26:12;26.20;;;4.20;;
44536;SDS011;30245;51.966;6.292;2023-03-26T02:31:05;11.97;;;2.97;;
44536;SDS011;30245;51.966;6.292;2023-03-26T02:33:33;21.90;;;4.05;;
44536;SDS011;30245;51.966;6.292;2023-03-26T02:36:00;15.37;;;2.83;;
44536;SDS011;30245;51.966;6.292;2023-03-26T02:38:29;11.75;;;4.38;;
44536;SDS011;30245;51.966;6.292;2023-03-26T02:40:59;15.53;;;3.00;;
44536;SDS011;30245;51.966;6.292;2023-03-26T02:43:25;20.67;;;3.97;;
44536;SDS011;30245;51.966;6.292;2023-03-26T02:45:51;10.33;;;3.13;;
44536;SDS011;30245;51.966;6.292;2023-03-26T02:48:17;16.63;;;3.27;;
44536;SDS011;30245;51.966;6.292;2023-03-26T02:50:43;14.00;;;2.67;;
44536;SDS011;30245;51.966;6.292;2023-03-26T02:53:09;13.73;;;3.40;;
44536;SDS011;30245;51.966;6.292;2023-03-26T02:55:35;22.80;;;4.50;;
44536;SDS011;30245;51.966;6.292;2023-03-26T02:58:01;14.43;;;3.67;;
44536;SDS011;30245;51.966;6.292;2023-03-26T03:00:27;20.07;;;3.63;;
44536;SDS011;30245;51.966;6.292;2023-03-26T03:02:53;19.33;;;5.10;;
44536;SDS011;30245;51.966;6.292;2023-03-26T03:10:16;16.70;;;4.00;;
44536;SDS011;30245;51.966;6.292;2023-03-26T03:12:45;23.17;;;6.00;;
44536;SDS011;30245;51.966;6.292;2023-03-26T03:15:11;19.20;;;4.60;;
44536;SDS011;30245;51.966;6.292;2023-03-26T03:17:37;16.93;;;3.47;;
44536;SDS011;30245;51.966;6.292;2023-03-26T03:20:02;12.17;;;3.63;;
44536;SDS011;30245;51.966;6.292;2023-03-26T03:22:30;23.33;;;5.00;;
44536;SDS011;30245;51.966;6.292;2023-03-26T03:24:55;14.47;;;2.73;;
44536;SDS011;30245;51.966;6.292;2023-03-26T03:27:23;16.77;;;3.17;;
44536;SDS011;30245;51.966;6.292;2023-03-26T03:29:50;14.60;;;4.17;;
44536;SDS011;30245;51.966;6.292;2023-03-26T03:32:17;18.83;;;4.00;;
44536;SDS011;30245;51.966;6.292;2023-03-26T03:34:43;15.03;;;4.30;;
44536;SDS011;30245;51.966;6.292;2023-03-26T03:37:09;15.67;;;3.10;;
44536;SDS011;30245;51.966;6.292;2023-03-26T03:39:34;15.83;;;3.63;;
44536;SDS011;30245;51.966;6.292;2023-03-26T03:42:00;16.70;;;3.70;;
44536;SDS011;30245;51.966;6.292;2023-03-26T03:44:25;18.80;;;4.03;;
44536;SDS011;30245;51.966;6.292;2023-03-26T03:46:51;20.70;;;4.73;;
44536;SDS011;30245;51.966;6.292;2023-03-26T03:49:19;27.13;;;4.70;;
44536;SDS011;30245;51.966;6.292;2023-03-26T03:51:45;12.83;;;3.07;;
44536;SDS011;30245;51.966;6.292;2023-03-26T03:54:11;16.40;;;3.57;;
44536;SDS011;30245;51.966;6.292;2023-03-26T03:56:36;14.73;;;3.23;;
44536;SDS011;30245;51.966;6.292;2023-03-26T03:59:03;20.90;;;4.53;;
44536;SDS011;30245;51.966;6.292;2023-03-26T04:01:28;26.43;;;3.73;;
44536;SDS011;30245;51.966;6.292;2023-03-26T04:03:56;21.07;;;3.60;;
44536;SDS011;30245;51.966;6.292;2023-03-26T04:06:22;13.53;;;2.60;;
44536;SDS011;30245;51.966;6.292;2023-03-26T04:08:49;20.50;;;3.90;;
44536;SDS011;30245;51.966;6.292;2023-03-26T04:11:15;21.47;;;3.00;;
44536;SDS011;30245;51.966;6.292;2023-03-26T04:13:41;12.33;;;3.20;;
44536;SDS011;30245;51.966;6.292;2023-03-26T04:16:06;13.30;;;3.97;;
44536;SDS011;30245;51.966;6.292;2023-03-26T04:18:32;8.30;;;1.87;;
44536;SDS011;30245;51.966;6.292;2023-03-26T04:20:58;8.80;;;2.50;;
44536;SDS011;30245;51.966;6.292;2023-03-26T04:23:27;15.25;;;2.83;;
44536;SDS011;30245;51.966;6.292;2023-03-26T04:25:53;14.60;;;3.17;;
44536;SDS011;30245;51.966;6.292;2023-03-26T04:28:25;18.20;;;3.60;;
44536;SDS011;30245;51.966;6.292;2023-03-26T04:30:56;17.43;;;2.43;;
44536;SDS011;30245;51.966;6.292;2023-03-26T04:33:25;13.40;;;2.40;;
44536;SDS011;30245;51.966;6.292;2023-03-26T04:35:56;14.87;;;3.17;;
44536;SDS011;30245;51.966;6.292;2023-03-26T04:38:27;15.47;;;2.17;;
44536;SDS011;30245;51.966;6.292;2023-03-26T04:40:54;13.63;;;3.42;;
44536;SDS011;30245;51.966;6.292;2023-03-26T04:43:24;19.27;;;2.73;;
44536;SDS011;30245;51.966;6.292;2023-03-26T04:45:50;13.87;;;2.70;;
44536;SDS011;30245;51.966;6.292;2023-03-26T04:48:17;25.10;;;5.13;;
44536;SDS011;30245;51.966;6.292;2023-03-26T04:50:44;12.07;;;2.77;;
44536;SDS011;30245;51.966;6.292;2023-03-26T04:53:11;8.87;;;2.53;;
44536;SDS011;30245;51.966;6.292;2023-03-26T04:56:01;17.30;;;2.67;;
44536;SDS011;30245;51.966;6.292;2023-03-26T04:58:50;18.00;;;2.20;;
44536;SDS011;30245;51.966;6.292;2023-03-26T05:01:20;10.30;;;2.50;;
44536;SDS011;30245;51.966;6.292;2023-03-26T05:03:48;14.27;;;2.77;;
44536;SDS011;30245;51.966;6.292;2023-03-26T05:06:13;20.90;;;2.80;;
44536;SDS011;30245;51.966;6.292;2023-03-26T05:08:41;14.77;;;3.80;;
44536;SDS011;30245;51.966;6.292;2023-03-26T05:11:08;13.90;;;2.33;;
44536;SDS011;30245;51.966;6.292;2023-03-26T05:13:35;15.45;;;2.10;;
44536;SDS011;30245;51.966;6.292;2023-03-26T05:16:01;14.77;;;2.20;;
44536;SDS011;30245;51.966;6.292;2023-03-26T05:18:27;13.77;;;2.50;;
44536;SDS011;30245;51.966;6.292;2023-03-26T05:20:52;11.47;;;1.50;;
44536;SDS011;30245;51.966;6.292;2023-03-26T05:23:19;13.03;;;2.67;;
44536;SDS011;30245;51.966;6.292;2023-03-26T05:25:46;8.50;;;1.33;;
44536;SDS011;30245;51.966;6.292;2023-03-26T05:28:11;14.83;;;2.00;;
44536;SDS011;30245;51.966;6.292;2023-03-26T05:30:37;13.27;;;2.40;;
44536;SDS011;30245;51.966;6.292;2023-03-26T05:33:03;12.90;;;2.70;;
44536;SDS011;30245;51.966;6.292;2023-03-26T05:35:29;12.43;;;1.70;;
44536;SDS011;30245;51.966;6.292;2023-03-26T05:37:54;10.73;;;2.00;;
44536;SDS011;30245;51.966;6.292;2023-03-26T05:40:21;14.10;;;2.30;;
44536;SDS011;30245;51.966;6.292;2023-03-26T05:42:46;12.10;;;1.57;;
44536;SDS011;30245;51.966;6.292;2023-03-26T05:45:13;15.63;;;2.13;;
44536;SDS011;30245;51.966;6.292;2023-03-26T05:47:39;10.97;;;2.20;;
44536;SDS011;30245;51.966;6.292;2023-03-26T05:50:05;16.60;;;2.77;;
44536;SDS011;30245;51.966;6.292;2023-03-26T05:52:31;12.53;;;1.50;;
44536;SDS011;30245;51.966;6.292;2023-03-26T05:54:57;18.30;;;1.77;;
44536;SDS011;30245;51.966;6.292;2023-03-26T05:57:23;18.20;;;2.17;;
44536;SDS011;30245;51.966;6.292;2023-03-26T05:59:52;11.43;;;2.53;;
44536;SDS011;30245;51.966;6.292;2023-03-26T06:02:18;13.37;;;2.37;;
44536;SDS011;30245;51.966;6.292;2023-03-26T06:04:44;11.90;;;2.43;;
44536;SDS011;30245;51.966;6.292;2023-03-26T06:07:10;10.20;;;1.70;;
44536;SDS011;30245;51.966;6.292;2023-03-26T06:09:36;13.90;;;2.10;;
44536;SDS011;30245;51.966;6.292;2023-03-26T06:12:05;6.63;;;1.80;;
44536;SDS011;30245;51.966;6.292;2023-03-26T06:14:32;15.60;;;1.87;;
44536;SDS011;30245;51.966;6.292;2023-03-26T06:16:58;9.67;;;3.00;;
44536;SDS011;30245;51.966;6.292;2023-03-26T06:19:24;12.97;;;1.17;;
44536;SDS011;30245;51.966;6.292;2023-03-26T06:21:49;13.13;;;1.43;;
44536;SDS011;30245;51.966;6.292;2023-03-26T06:24:15;14.13;;;2.63;;
44536;SDS011;30245;51.966;6.292;2023-03-26T06:26:41;10.80;;;1.97;;
44536;SDS011;30245;51.966;6.292;2023-03-26T06:29:07;16.47;;;2.07;;
44536;SDS011;30245;51.966;6.292;2023-03-26T06:31:33;12.63;;;1.83;;
44536;SDS011;30245;51.966;6.292;2023-03-26T06:33:58;8.43;;;1.43;;
44536;SDS011;30245;51.966;6.292;2023-03-26T06:36:24;10.40;;;1.60;;
44536;SDS011;30245;51.966;6.292;2023-03-26T06:38:50;16.80;;;4.47;;
44536;SDS011;30245;51.966;6.292;2023-03-26T06:41:16;13.73;;;2.33;;
44536;SDS011;30245;51.966;6.292;2023-03-26T06:43:41;16.30;;;2.67;;
44536;SDS011;30245;51.966;6.292;2023-03-26T06:46:07;11.30;;;1.47;;
44536;SDS011;30245;51.966;6.292;2023-03-26T06:48:33;11.33;;;1.70;;
44536;SDS011;30245;51.966;6.292;2023-03-26T06:50:59;16.47;;;2.43;;
44536;SDS011;30245;51.966;6.292;2023-03-26T06:53:24;9.30;;;2.27;;
44536;SDS011;30245;51.966;6.292;2023-03-26T06:55:51;13.93;;;1.97;;
44536;SDS011;30245;51.966;6.292;2023-03-26T06:58:18;13.90;;;1.23;;
44536;SDS011;30245;51.966;6.292;2023-03-26T07:00:44;8.50;;;1.20;;
44536;SDS011;30245;51.966;6.292;2023-03-26T07:03:11;11.33;;;1.97;;
44536;SDS011;30245;51.966;6.292;2023-03-26T07:05:37;8.63;;;1.53;;
44536;SDS011;30245;51.966;6.292;2023-03-26T07:08:04;15.27;;;2.33;;
44536;SDS011;30245;51.966;6.292;2023-03-26T07:10:30;16.33;;;3.73;;
44536;SDS011;30245;51.966;6.292;2023-03-26T07:12:56;15.83;;;2.57;;
44536;SDS011;30245;51.966;6.292;2023-03-26T07:15:21;19.77;;;3.47;;
44536;SDS011;30245;51.966;6.292;2023-03-26T07:17:47;12.03;;;1.90;;
44536;SDS011;30245;51.966;6.292;2023-03-26T07:20:12;14.93;;;2.47;;
44536;SDS011;30245;51.966;6.292;2023-03-26T07:22:38;10.80;;;1.40;;
44536;SDS011;30245;51.966;6.292;2023-03-26T07:25:04;12.80;;;2.40;;
44536;SDS011;30245;51.966;6.292;2023-03-26T07:30:04;12.30;;;2.53;;
44536;SDS011;30245;51.966;6.292;2023-03-26T07:45:58;9.50;;;1.63;;
44536;SDS011;30245;51.966;6.292;2023-03-26T07:48:25;10.23;;;2.67;;
44536;SDS011;30245;51.966;6.292;2023-03-26T07:50:55;9.70;;;1.53;;
44536;SDS011;30245;51.966;6.292;2023-03-26T07:53:21;14.47;;;1.77;;
44536;SDS011;30245;51.966;6.292;2023-03-26T08:15:11;8.03;;;1.37;;
44536;SDS011;30245;51.966;6.292;2023-03-26T08:18:03;14.30;;;1.50;;
44536;SDS011;30245;51.966;6.292;2023-03-26T08:20:53;10.40;;;1.13;;
44536;SDS011;30245;51.966;6.292;2023-03-26T08:23:25;11.03;;;2.43;;
44536;SDS011;30245;51.966;6.292;2023-03-26T08:31:40;4.13;;;0.73;;
44536;SDS011;30245;51.966;6.292;2023-03-26T08:36:35;11.50;;;1.20;;
44536;SDS011;30245;51.966;6.292;2023-03-26T08:39:01;12.90;;;2.27;;
44536;SDS011;30245;51.966;6.292;2023-03-26T08:53:20;9.63;;;1.67;;
44536;SDS011;30245;51.966;6.292;2023-03-26T09:01:06;10.30;;;1.75;;
44536;SDS011;30245;51.966;6.292;2023-03-26T09:12:00;12.43;;;1.30;;
44536;SDS011;30245;51.966;6.292;2023-03-26T09:21:12;7.10;;;1.10;;
44536;SDS011;30245;51.966;6.292;2023-03-26T09:46:47;6.27;;;1.67;;
44536;SDS011;30245;51.966;6.292;2023-03-26T10:08:40;17.23;;;1.27;;
44536;SDS011;30245;51.966;6.292;2023-03-26T10:11:33;9.93;;;0.93;;
44536;SDS011;30245;51.966;6.292;2023-03-26T10:14:21;9.17;;;1.30;;
44536;SDS011;30245;51.966;6.292;2023-03-26T10:28:01;6.40;;;1.27;;
44536;SDS011;30245;51.966;6.292;2023-03-26T10:30:42;7.90;;;2.23;;
44536;SDS011;30245;51.966;6.292;2023-03-26T10:36:22;13.23;;;1.80;;
44536;SDS011;30245;51.966;6.292;2023-03-26T10:39:02;10.00;;;1.60;;
44536;SDS011;30245;51.966;6.292;2023-03-26T10:44:48;3.37;;;1.13;;
44536;SDS011;30245;51.966;6.292;2023-03-26T10:52:58;4.20;;;1.27;;
44536;SDS011;30245;51.966;6.292;2023-03-26T10:55:45;3.75;;;1.17;;
44536;SDS011;30245;51.966;6.292;2023-03-26T10:58:25;13.37;;;1.67;;
44536;SDS011;30245;51.966;6.292;2023-03-26T11:01:03;7.77;;;1.80;;
44536;SDS011;30245;51.966;6.292;2023-03-26T11:06:39;4.70;;;1.60;;
44536;SDS011;30245;51.966;6.292;2023-03-26T11:14:56;4.93;;;2.20;;
44536;SDS011;30245;51.966;6.292;2023-03-26T11:17:44;4.07;;;1.30;;
44536;SDS011;30245;51.966;6.292;2023-03-26T11:23:07;8.47;;;3.00;;
44536;SDS011;30245;51.966;6.292;2023-03-26T11:28:38;4.70;;;1.90;;
44536;SDS011;30245;51.966;6.292;2023-03-26T11:34:05;7.83;;;3.23;;
44536;SDS011;30245;51.966;6.292;2023-03-26T11:36:38;3.30;;;1.87;;
44536;SDS011;30245;51.966;6.292;2023-03-26T11:39:12;3.83;;;1.97;;
44536;SDS011;30245;51.966;6.292;2023-03-26T11:41:45;5.17;;;2.77;;
44536;SDS011;30245;51.966;6.292;2023-03-26T11:47:02;10.40;;;3.20;;
44536;SDS011;30245;51.966;6.292;2023-03-26T11:49:34;5.03;;;3.67;;
44536;SDS011;30245;51.966;6.292;2023-03-26T11:52:00;8.63;;;2.73;;
44536;SDS011;30245;51.966;6.292;2023-03-26T11:54:27;6.40;;;2.43;;
44536;SDS011;30245;51.966;6.292;2023-03-26T11:56:57;7.93;;;3.10;;
44536;SDS011;30245;51.966;6.292;2023-03-26T11:59:37;3.57;;;2.60;;
44536;SDS011;30245;51.966;6.292;2023-03-26T12:04:34;10.20;;;3.40;;
44536;SDS011;30245;51.966;6.292;2023-03-26T12:09:33;14.20;;;3.13;;
44536;SDS011;30245;51.966;6.292;2023-03-26T12:11:59;11.37;;;3.00;;
44536;SDS011;30245;51.966;6.292;2023-03-26T12:19:35;4.53;;;2.30;;
44536;SDS011;30245;51.966;6.292;2023-03-26T12:22:03;8.20;;;2.40;;
44536;SDS011;30245;51.966;6.292;2023-03-26T12:24:30;6.53;;;2.40;;
44536;SDS011;30245;51.966;6.292;2023-03-26T12:26:57;4.50;;;2.33;;
44536;SDS011;30245;51.966;6.292;2023-03-26T12:29:28;6.17;;;2.13;;
44536;SDS011;30245;51.966;6.292;2023-03-26T12:32:05;8.03;;;2.67;;
44536;SDS011;30245;51.966;6.292;2023-03-26T12:34:37;6.10;;;2.73;;
44536;SDS011;30245;51.966;6.292;2023-03-26T12:37:04;7.90;;;2.30;;
44536;SDS011;30245;51.966;6.292;2023-03-26T12:39:33;5.90;;;2.05;;
44536;SDS011;30245;51.966;6.292;2023-03-26T12:42:04;5.23;;;1.73;;
44536;SDS011;30245;51.966;6.292;2023-03-26T12:44:49;4.67;;;1.80;;
44536;SDS011;30245;51.966;6.292;2023-03-26T12:47:27;2.80;;;1.60;;
44536;SDS011;30245;51.966;6.292;2023-03-26T12:49:57;9.30;;;2.77;;
44536;SDS011;30245;51.966;6.292;2023-03-26T12:52:29;4.47;;;2.07;;
44536;SDS011;30245;51.966;6.292;2023-03-26T12:57:34;6.70;;;2.23;;
44536;SDS011;30245;51.966;6.292;2023-03-26T13:06:10;6.70;;;1.90;;
44536;SDS011;30245;51.966;6.292;2023-03-26T13:17:03;3.73;;;1.17;;
44536;SDS011;30245;51.966;6.292;2023-03-26T13:30:42;7.37;;;1.63;;
44536;SDS011;30245;51.966;6.292;2023-03-26T13:33:58;10.33;;;2.33;;
44536;SDS011;30245;51.966;6.292;2023-03-26T13:36:31;6.03;;;1.07;;
44536;SDS011;30245;51.966;6.292;2023-03-26T13:39:02;5.37;;;1.23;;
44536;SDS011;30245;51.966;6.292;2023-03-26T13:41:55;4.53;;;1.40;;
44536;SDS011;30245;51.966;6.292;2023-03-26T13:47:16;6.53;;;0.83;;
44536;SDS011;30245;51.966;6.292;2023-03-26T13:49:47;8.47;;;1.00;;
44536;SDS011;30245;51.966;6.292;2023-03-26T13:55:06;12.47;;;2.73;;
44536;SDS011;30245;51.966;6.292;2023-03-26T13:57:52;4.93;;;1.00;;
44536;SDS011;30245;51.966;6.292;2023-03-26T14:01:00;3.90;;;0.65;;
44536;SDS011;30245;51.966;6.292;2023-03-26T14:03:36;7.87;;;1.67;;
44536;SDS011;30245;51.966;6.292;2023-03-26T14:14:54;6.60;;;0.70;;
44536;SDS011;30245;51.966;6.292;2023-03-26T14:53:48;4.70;;;0.50;;
44536;SDS011;30245;51.966;6.292;2023-03-26T15:08:24;5.50;;;0.50;;
44536;SDS011;30245;51.966;6.292;2023-03-26T15:13:47;6.97;;;0.90;;
44536;SDS011;30245;51.966;6.292;2023-03-26T15:16:42;4.20;;;0.40;;
44536;SDS011;30245;51.966;6.292;2023-03-26T15:19:21;2.87;;;0.57;;
44536;SDS011;30245;51.966;6.292;2023-03-26T15:22:27;3.17;;;0.50;;
44536;SDS011;30245;51.966;6.292;2023-03-26T15:25:44;4.83;;;0.40;;
44536;SDS011;30245;51.966;6.292;2023-03-26T15:31:15;10.43;;;0.50;;
44536;SDS011;30245;51.966;6.292;2023-03-26T15:59:27;9.17;;;0.87;;
44536;SDS011;30245;51.966;6.292;2023-03-26T16:15:53;6.60;;;1.10;;
44536;SDS011;30245;51.966;6.292;2023-03-26T16:18:34;7.30;;;0.50;;
44536;SDS011;30245;51.966;6.292;2023-03-26T16:37:40;4.00;;;0.77;;
44536;SDS011;30245;51.966;6.292;2023-03-26T16:56:20;3.73;;;0.67;;
44536;SDS011;30245;51.966;6.292;2023-03-26T17:01:49;9.97;;;1.50;;
44536;SDS011;30245;51.966;6.292;2023-03-26T17:04:30;3.63;;;0.50;;
44536;SDS011;30245;51.966;6.292;2023-03-26T17:07:40;5.17;;;0.60;;
44536;SDS011;30245;51.966;6.292;2023-03-26T17:10:14;5.80;;;0.83;;
44536;SDS011;30245;51.966;6.292;2023-03-26T17:15:44;10.03;;;0.50;;
44536;SDS011;30245;51.966;6.292;2023-03-26T17:29:25;4.13;;;0.30;;
44536;SDS011;30245;51.966;6.292;2023-03-26T17:32:15;6.60;;;0.50;;
44536;SDS011;30245;51.966;6.292;2023-03-26T17:34:42;2.20;;;0.30;;
44536;SDS011;30245;51.966;6.292;2023-03-26T17:51:13;2.80;;;0.50;;
44536;SDS011;30245;51.966;6.292;2023-03-26T17:53:28;3.33;;;0.50;;
44536;SDS011;30245;51.966;6.292;2023-03-26T17:55:56;5.95;;;0.60;;
44536;SDS011;30245;51.966;6.292;2023-03-26T17:58:36;1.70;;;0.47;;
44536;SDS011;30245;51.966;6.292;2023-03-26T18:03:40;3.23;;;0.57;;
44536;SDS011;30245;51.966;6.292;2023-03-26T18:06:15;6.03;;;0.87;;
44536;SDS011;30245;51.966;6.292;2023-03-26T18:14:25;4.87;;;0.40;;
44536;SDS011;30245;51.966;6.292;2023-03-26T18:17:02;3.10;;;0.40;;
44536;SDS011;30245;51.966;6.292;2023-03-26T18:19:29;2.73;;;0.30;;
44536;SDS011;30245;51.966;6.292;2023-03-26T18:22:18;5.93;;;0.53;;
44536;SDS011;30245;51.966;6.292;2023-03-26T18:24:47;4.83;;;0.37;;
44536;SDS011;30245;51.966;6.292;2023-03-26T18:27:14;4.13;;;0.47;;
44536;SDS011;30245;51.966;6.292;2023-03-26T18:30:08;5.10;;;0.43;;
44536;SDS011;30245;51.966;6.292;2023-03-26T18:32:45;4.40;;;0.70;;
44536;SDS011;30245;51.966;6.292;2023-03-26T18:35:17;5.03;;;0.30;;
44536;SDS011;30245;51.966;6.292;2023-03-26T18:37:45;3.90;;;0.50;;
44536;SDS011;30245;51.966;6.292;2023-03-26T18:40:17;3.03;;;0.30;;
44536;SDS011;30245;51.966;6.292;2023-03-26T18:42:52;4.33;;;0.60;;
44536;SDS011;30245;51.966;6.292;2023-03-26T18:45:33;8.13;;;1.37;;
44536;SDS011;30245;51.966;6.292;2023-03-26T18:48:05;4.93;;;0.73;;
44536;SDS011;30245;51.966;6.292;2023-03-26T18:50:45;2.03;;;0.27;;
44536;SDS011;30245;51.966;6.292;2023-03-26T18:53:24;10.63;;;0.70;;
44536;SDS011;30245;51.966;6.292;2023-03-26T18:55:54;3.77;;;1.00;;
44536;SDS011;30245;51.966;6.292;2023-03-26T18:58:36;9.43;;;0.77;;
44536;SDS011;30245;51.966;6.292;2023-03-26T19:01:05;1.17;;;0.30;;
44536;SDS011;30245;51.966;6.292;2023-03-26T19:03:34;1.63;;;0.50;;
44536;SDS011;30245;51.966;6.292;2023-03-26T19:06:03;1.40;;;0.40;;
44536;SDS011;30245;51.966;6.292;2023-03-26T19:08:34;2.43;;;0.40;;
44536;SDS011;30245;51.966;6.292;2023-03-26T19:13:31;7.90;;;0.87;;
44536;SDS011;30245;51.966;6.292;2023-03-26T19:15:57;3.23;;;0.50;;
44536;SDS011;30245;51.966;6.292;2023-03-26T19:18:25;6.57;;;0.40;;
44536;SDS011;30245;51.966;6.292;2023-03-26T19:20:56;5.90;;;0.60;;
44536;SDS011;30245;51.966;6.292;2023-03-26T19:23:28;3.13;;;0.47;;
44536;SDS011;30245;51.966;6.292;2023-03-26T19:26:00;6.93;;;0.40;;
44536;SDS011;30245;51.966;6.292;2023-03-26T19:28:38;2.70;;;0.70;;
44536;SDS011;30245;51.966;6.292;2023-03-26T19:31:09;2.53;;;0.40;;
44536;SDS011;30245;51.966;6.292;2023-03-26T19:33:45;2.10;;;0.77;;
44536;SDS011;30245;51.966;6.292;2023-03-26T19:36:19;3.67;;;0.50;;
44536;SDS011;30245;51.966;6.292;2023-03-26T19:41:29;3.73;;;0.50;;
44536;SDS011;30245;51.966;6.292;2023-03-26T19:43:58;3.78;;;0.38;;
44536;SDS011;30245;51.966;6.292;2023-03-26T19:46:26;3.50;;;0.40;;
44536;SDS011;30245;51.966;6.292;2023-03-26T19:48:53;3.63;;;0.50;;
44536;SDS011;30245;51.966;6.292;2023-03-26T19:51:24;6.97;;;0.93;;
44536;SDS011;30245;51.966;6.292;2023-03-26T19:53:56;5.10;;;0.87;;
44536;SDS011;30245;51.966;6.292;2023-03-26T19:56:24;7.37;;;1.27;;
44536;SDS011;30245;51.966;6.292;2023-03-26T19:58:51;7.00;;;1.53;;
44536;SDS011;30245;51.966;6.292;2023-03-26T20:01:22;9.10;;;1.10;;
44536;SDS011;30245;51.966;6.292;2023-03-26T20:03:51;5.97;;;2.07;;
44536;SDS011;30245;51.966;6.292;2023-03-26T20:06:19;5.22;;;0.93;;
44536;SDS011;30245;51.966;6.292;2023-03-26T20:08:46;5.03;;;1.33;;
44536;SDS011;30245;51.966;6.292;2023-03-26T20:11:17;7.53;;;1.80;;
44536;SDS011;30245;51.966;6.292;2023-03-26T20:13:48;5.20;;;0.40;;
44536;SDS011;30245;51.966;6.292;2023-03-26T20:18:50;3.33;;;0.40;;
44536;SDS011;30245;51.966;6.292;2023-03-26T20:21:17;4.17;;;0.57;;
44536;SDS011;30245;51.966;6.292;2023-03-26T20:23:42;1.57;;;0.50;;
44536;SDS011;30245;51.966;6.292;2023-03-26T20:26:09;5.30;;;0.60;;
44536;SDS011;30245;51.966;6.292;2023-03-26T20:28:37;4.50;;;0.77;;
44536;SDS011;30245;51.966;6.292;2023-03-26T20:31:02;5.63;;;0.70;;
44536;SDS011;30245;51.966;6.292;2023-03-26T20:33:28;6.57;;;0.73;;
44536;SDS011;30245;51.966;6.292;2023-03-26T20:35:54;2.10;;;0.67;;
44536;SDS011;30245;51.966;6.292;2023-03-26T20:38:20;3.37;;;0.30;;
44536;SDS011;30245;51.966;6.292;2023-03-26T20:40:46;4.80;;;0.30;;
44536;SDS011;30245;51.966;6.292;2023-03-26T20:43:13;3.97;;;0.40;;
44536;SDS011;30245;51.966;6.292;2023-03-26T20:45:42;4.30;;;0.30;;
44536;SDS011;30245;51.966;6.292;2023-03-26T20:48:09;3.30;;;0.53;;
44536;SDS011;30245;51.966;6.292;2023-03-26T20:50:35;3.77;;;0.30;;
44536;SDS011;30245;51.966;6.292;2023-03-26T20:53:02;5.70;;;0.30;;
44536;SDS011;30245;51.966;6.292;2023-03-26T20:55:28;4.97;;;0.30;;
44536;SDS011;30245;51.966;6.292;2023-03-26T20:57:54;4.43;;;0.50;;
44536;SDS011;30245;51.966;6.292;2023-03-26T21:00:19;3.40;;;0.30;;
44536;SDS011;30245;51.966;6.292;2023-03-26T21:02:52;7.85;;;0.40;;
44536;SDS011;30245;51.966;6.292;2023-03-26T21:05:19;4.80;;;0.30;;
44536;SDS011;30245;51.966;6.292;2023-03-26T21:07:48;4.97;;;1.33;;
44536;SDS011;30245;51.966;6.292;2023-03-26T21:10:18;5.27;;;0.40;;
44536;SDS011;30245;51.966;6.292;2023-03-26T21:15:32;6.57;;;0.50;;
44536;SDS011;30245;51.966;6.292;2023-03-26T21:17:58;5.87;;;0.83;;
44536;SDS011;30245;51.966;6.292;2023-03-26T21:20:24;5.23;;;0.53;;
44536;SDS011;30245;51.966;6.292;2023-03-26T21:22:59;4.50;;;0.40;;
44536;SDS011;30245;51.966;6.292;2023-03-26T21:30:42;4.07;;;0.33;;
44536;SDS011;30245;51.966;6.292;2023-03-26T21:33:08;3.90;;;0.40;;
44536;SDS011;30245;51.966;6.292;2023-03-26T21:35:33;2.57;;;0.30;;
44536;SDS011;30245;51.966;6.292;2023-03-26T21:37:59;2.37;;;0.30;;
44536;SDS011;30245;51.966;6.292;2023-03-26T21:40:27;2.70;;;0.30;;
44536;SDS011;30245;51.966;6.292;2023-03-26T21:42:53;4.83;;;0.37;;
44536;SDS011;30245;51.966;6.292;2023-03-26T21:45:19;4.57;;;0.30;;
44536;SDS011;30245;51.966;6.292;2023-03-26T21:47:46;3.00;;;0.43;;
44536;SDS011;30245;51.966;6.292;2023-03-26T21:50:13;5.10;;;0.50;;
44536;SDS011;30245;51.966;6.292;2023-03-26T21:52:40;5.43;;;0.68;;
44536;SDS011;30245;51.966;6.292;2023-03-26T21:55:15;3.77;;;0.77;;
44536;SDS011;30245;51.966;6.292;2023-03-26T21:57:51;2.30;;;0.20;;
44536;SDS011;30245;51.966;6.292;2023-03-26T22:00:40;2.13;;;0.40;;
44536;SDS011;30245;51.966;6.292;2023-03-26T22:03:24;7.17;;;0.70;;
44536;SDS011;30245;51.966;6.292;2023-03-26T22:08:37;4.73;;;0.50;;
44536;SDS011;30245;51.966;6.292;2023-03-26T22:11:05;5.57;;;1.30;;